首页
METAR-TAF:

METAR-TAF

机场 :

賓漢頓, 紐約州, 美国

纬度: 42-12-28N, 经度: 075-58-53W, 海拔: 496米

当前天气观测

该预报发布于1小时和5分钟前的08:53 UTC
风速3节,风向西转西南
温度 4°C
湿度 75%
气压 1022 hPa
能見度: 16.1公里
天空无云

METAR: KBGM 010853Z AUTO 25003KT 10SM CLR 04/00 A3019 RMK AO2 SLP231 T00440000 51000

时间: 05:58 (09:58 UTC)

预报

该预报发布于4小时和31分钟前的05:27 UTC
预报有效从01日的 06点(UTC)到 02日的 06点(UTC)
风速5节,风向西转西北
能見度: 10公里
天空无云
从 01日的 0900点(UTC)
风速7节,风向西北
能見度: 10公里
散云层高于4000英尺
多云层高于8000英尺
从 01日的 1600点(UTC)
风速11节,风向西北,有时为19节阵风
能見度: 10公里
散云层高于5000英尺
从 02日的 0200点(UTC)
风速5节,风向西
能見度: 10公里
散云层高于10000英尺

TAF: KBGM 010527Z 0106/0206 30005KT P6SM SKC FM010900 31007KT P6SM SCT040 BKN080 FM011600 31011G19KT P6SM SCT050 FM020200 28005KT P6SM SCT100

超过4000个机场的气象观测和天气预报(METAR&TAF报告)。

可查询的气象台以黄色和红色小点在地图上表示。

将鼠标移到小点上方,可查看气象台名称。

然后点击查看天气观测和预报。

如需切换地图:点击带黑十字的绿色按钮放大地图;点击带横线的绿色按钮缩小地图;或者点击绿色箭头查看邻近地区的地图。


METAR-TAF: